• Join FlightAware (Why Join?)
  • Login
  • US Flag 
11:41PM EDT


 

Airport Tracker/Info


-or-


 

Live Flight TrackerFlight Track Log ✈ WWW683 ✈ 09-May-2013 ✈ KTNX - KLAS

Flight Track Log - Related Links

Times and Time Zones

All times are in EDT time to prevent confusion due to time zone crossing. See the WWW683 flight status page for this flight to view local times or setup timezone preferences in your user account.

Time Position Orientation Groundspeed Altitude Reporting Facility
EDT Latitude Longitude Course Direction KTS MPH feet Rate Location/Type
08:50AM 37.7272 -116.7408 188° South 264 304 11,000  Level Los Angeles Center
08:51AM 37.6392 -116.6839 153° Southeast 347 399 13,900 3,300 Climbing Los Angeles Center
08:52AM 37.5464 -116.6247 153° Southeast 369 425 17,700 2,520 Climbing Los Angeles Center
08:53AM 37.4453 -116.5594 153° Southeast 398 458 19,000 600 Climbing Los Angeles Center
08:54AM 37.3532 -116.3493 153° Southeast  Level Estimated
08:54AM 37.3442 -116.4961 154° Southeast 406 467 19,000  Level Los Angeles Center
08:55AM 37.2604 -116.3649 188° South  Level FlightAware Approximate
08:55AM 37.2419 -116.4361 155° Southeast 405 466 19,000  Level Los Angeles Center
08:56AM 37.1411 -116.3747 154° Southeast 403 464 19,000  Level Los Angeles Center
08:57AM 37.0394 -116.3133 154° Southeast 404 465 19,000  Level Los Angeles Center
08:58AM 36.9381 -116.2531 155° Southeast 404 465 19,000  Level Los Angeles Center
08:59AM 36.8750 -116.1419 125° Southeast 398 458 19,000  Level Los Angeles Center
09:00AM 36.8178 -116.0256 122° Southeast 395 455 19,000  Level Los Angeles Center
09:01AM 36.7614 -115.9094 121° Southeast 392 451 19,000 -120 Level Los Angeles Center
09:02AM 36.7097 -115.8025 121° Southeast 394 453 18,800 -660 Descending Los Angeles Center
09:03AM 36.6531 -115.6867 121° Southeast 391 450 17,700 -2,160 Descending Los Angeles Center
09:03AM 36.6119 -115.6142 125° Southeast 381 438 15,600 -3,000 Descending Los Angeles Center
09:04AM 36.5978 -115.5728 113° Southeast 387 445 14,700 -2,160 Descending Los Angeles Center
09:04AM 36.5400 -115.4986 134° Southeast 368 423 13,000 -1,680 Descending Los Angeles Center
09:05AM 36.5283 -115.4806 129° Southeast 372 428 13,000 -840 Level Los Angeles Center
09:05AM 36.4678 -115.4233 143° Southeast 302 348 12,200 -1,200 Descending Los Angeles Center
09:06AM 36.4608 -115.4117 127° Southeast 333 383 11,800 -2,340 Descending Los Angeles Center
09:06AM 36.3992 -115.3550 144° Southeast 317 365 9,900 -1,980 Descending Los Angeles Center
09:07AM 36.3914 -115.3442 132° Southeast 318 366 9,800 -2,100 Descending Los Angeles Center
09:07AM 36.3342 -115.2936 145° Southeast 287 330 7,800 -2,280 Descending Los Angeles Center
09:08AM 36.3272 -115.2831 129° Southeast 297 342 7,500 -2,100 Descending Los Angeles Center
09:08AM 36.2728 -115.2392 147° Southeast 274 315 5,700 -2,220 Descending Los Angeles Center
09:09AM 36.2650 -115.2278 130° Southeast 283 326 5,300 -1,200 Descending Los Angeles Center
09:09AM 36.2125 -115.1897 150° Southeast 252 290 4,500 -840 Descending Los Angeles Center
09:10AM 36.2056 -115.1783 127° Southeast 270 311 4,500 -300 Level Los Angeles Center
09:10AM 36.1725 -115.1550 150° Southeast 157 181 4,200 -420 Descending Los Angeles Center
09:11AM 36.1686 -115.1472 122° Southeast 200 230 4,100 -1,080 Descending Los Angeles Center
09:12AM 36.1308 -115.1383 169° South 159 183 2,800 -1,140 Descending Los Angeles Center
09:13AM 36.0922 -115.1592 204° Southwest 137 158 1,900 -900 Descending Los Angeles Center
09:15AM 36.0801 -115.1523 95° East  Level Estimated